createdAt,value
2023-05-14T00:01:59.209Z,26.93
2023-05-14T00:04:28.416Z,26.68
2023-05-14T00:06:55.879Z,25.52
2023-05-14T00:09:17.742Z,25.79
2023-05-14T00:11:50.936Z,26.46
2023-05-14T00:14:26.894Z,27.07
2023-05-14T00:16:57.582Z,27.00
2023-05-14T00:19:30.587Z,25.81
2023-05-14T00:21:54.651Z,25.63
2023-05-14T00:24:28.875Z,26.12
2023-05-14T00:26:56.614Z,26.01
2023-05-14T00:29:30.949Z,26.36
2023-05-14T00:31:57.176Z,26.62
2023-05-14T00:34:19.472Z,26.82
2023-05-14T00:36:46.232Z,26.05
2023-05-14T00:39:19.193Z,26.18
2023-05-14T00:41:52.932Z,27.04
2023-05-14T00:44:27.053Z,26.83
2023-05-14T00:46:56.988Z,26.55
2023-05-14T00:49:31.842Z,27.49
2023-05-14T00:52:05.600Z,27.50
2023-05-14T00:54:34.397Z,27.85
2023-05-14T00:57:08.272Z,27.85
2023-05-14T00:59:43.776Z,27.34
2023-05-14T01:02:17.468Z,26.86
2023-05-14T01:04:51.451Z,27.49
2023-05-14T01:07:33.091Z,27.52
2023-05-14T01:10:04.203Z,27.49
2023-05-14T01:12:33.499Z,27.84
2023-05-14T01:15:03.086Z,27.76
2023-05-14T01:17:28.458Z,28.46
2023-05-14T01:20:14.324Z,28.56
2023-05-14T01:22:48.594Z,28.62
2023-05-14T01:25:23.880Z,28.98
2023-05-14T01:28:04.587Z,28.91
2023-05-14T01:30:43.700Z,28.67
2023-05-14T01:33:22.131Z,28.70
2023-05-14T01:35:56.468Z,29.16
2023-05-14T01:38:31.857Z,29.80
2023-05-14T01:41:05.961Z,30.27
2023-05-14T01:43:41.741Z,30.56
2023-05-14T01:46:15.187Z,30.75
2023-05-14T01:48:49.303Z,30.86
2023-05-14T01:51:26.676Z,31.14
2023-05-14T01:53:52.957Z,31.04
2023-05-14T01:56:23.007Z,31.61
2023-05-14T01:58:56.786Z,31.75
2023-05-14T02:01:23.898Z,31.37
2023-05-14T02:03:49.308Z,31.46
2023-05-14T02:06:16.400Z,31.77
2023-05-14T02:08:42.132Z,31.94
2023-05-14T02:11:01.805Z,32.05
2023-05-14T02:13:28.953Z,32.46
2023-05-14T02:15:59.949Z,32.74
2023-05-14T02:18:33.729Z,32.87
2023-05-14T02:21:00.478Z,32.80
2023-05-14T02:23:34.036Z,32.98
2023-05-14T02:26:11.641Z,32.98
2023-05-14T02:28:35.519Z,33.15
2023-05-14T02:31:08.089Z,33.54
2023-05-14T02:33:42.977Z,33.55
2023-05-14T02:36:04.845Z,33.56
2023-05-14T02:38:53.767Z,33.53
2023-05-14T02:41:26.669Z,33.94
2023-05-14T02:44:00.722Z,34.04
2023-05-14T02:46:35.794Z,34.46
2023-05-14T02:49:04.053Z,34.51
2023-05-14T02:51:37.740Z,34.67
2023-05-14T02:54:12.612Z,34.66
2023-05-14T02:56:39.247Z,34.94
2023-05-14T02:59:13.359Z,34.94
2023-05-14T03:01:46.751Z,35.37
2023-05-14T03:04:05.481Z,35.65
2023-05-14T03:06:39.123Z,35.61
2023-05-14T03:09:13.524Z,36.07
2023-05-14T03:11:48.221Z,36.26
2023-05-14T03:14:15.837Z,36.44
2023-05-14T03:16:49.875Z,36.56
2023-05-14T03:19:17.835Z,36.79
2023-05-14T03:24:35.080Z,37.22
2023-05-14T03:26:57.928Z,37.41
2023-05-14T03:29:32.701Z,37.47
2023-05-14T03:32:07.077Z,37.70
2023-05-14T03:34:42.044Z,37.95
2023-05-14T03:37:17.765Z,38.25
2023-05-14T03:39:52.471Z,38.34
2023-05-14T03:42:26.711Z,38.36
2023-05-14T03:44:43.790Z,38.64
2023-05-14T03:47:00.960Z,38.89
2023-05-14T03:49:28.713Z,38.88
2023-05-14T03:51:45.887Z,39.06
2023-05-14T03:54:11.624Z,39.15
2023-05-14T03:56:43.661Z,39.49
2023-05-14T03:59:07.685Z,39.91
2023-05-14T04:01:24.520Z,40.21
2023-05-14T04:03:50.584Z,40.78
2023-05-14T04:06:24.142Z,41.02
2023-05-14T04:08:48.876Z,41.53
2023-05-14T04:11:14.252Z,41.96
2023-05-14T04:13:30.456Z,42.38
2023-05-14T04:15:58.175Z,42.69
2023-05-14T04:18:36.089Z,43.08
2023-05-14T04:21:05.280Z,43.40
2023-05-14T04:23:31.092Z,43.71
2023-05-14T04:25:50.428Z,44.13
2023-05-14T04:28:14.433Z,44.34
2023-05-14T04:30:39.938Z,44.47
2023-05-14T04:33:13.508Z,44.88
2023-05-14T04:38:12.649Z,45.29
2023-05-14T04:40:47.254Z,45.46
2023-05-14T04:43:16.377Z,45.74
2023-05-14T04:45:42.139Z,45.97
2023-05-14T04:48:13.471Z,46.17
2023-05-14T04:50:33.569Z,46.34
2023-05-14T04:53:07.196Z,46.69
2023-05-14T04:55:35.140Z,46.83
2023-05-14T04:58:10.144Z,47.08
2023-05-14T05:00:29.755Z,47.11
2023-05-14T05:02:52.632Z,47.47
2023-05-14T05:05:18.819Z,47.59
2023-05-14T05:07:46.814Z,47.59
2023-05-14T05:10:23.203Z,47.85
2023-05-14T05:12:56.701Z,47.90
2023-05-14T05:15:23.699Z,48.17
2023-05-14T05:17:41.721Z,48.32
2023-05-14T05:20:11.139Z,48.30
2023-05-14T05:22:31.773Z,48.37
2023-05-14T05:24:50.657Z,48.49
2023-05-14T05:27:12.714Z,48.60
2023-05-14T05:29:36.740Z,48.69
2023-05-14T05:32:02.665Z,48.87
2023-05-14T05:34:17.185Z,48.91
2023-05-14T05:36:35.034Z,49.02
2023-05-14T05:39:00.953Z,49.04
2023-05-14T05:41:31.364Z,49.15
2023-05-14T05:43:50.869Z,49.35
2023-05-14T05:46:16.855Z,49.37
2023-05-14T05:48:40.337Z,49.50
2023-05-14T05:51:04.689Z,49.54
2023-05-14T05:53:37.238Z,49.63
2023-05-14T05:55:57.882Z,49.74
2023-05-14T05:58:26.366Z,49.69
2023-05-14T06:00:50.190Z,49.82
2023-05-14T06:03:09.914Z,50.03
2023-05-14T06:05:44.201Z,50.08
2023-05-14T06:08:17.609Z,50.25
2023-05-14T06:10:51.461Z,50.47
2023-05-14T06:13:21.816Z,50.59
2023-05-14T06:15:55.416Z,50.79
2023-05-14T06:18:28.425Z,50.97
2023-05-14T06:21:01.832Z,51.12
2023-05-14T06:23:33.750Z,51.44
2023-05-14T06:26:08.088Z,51.65
2023-05-14T06:28:27.680Z,52.02
2023-05-14T06:30:47.027Z,52.30
2023-05-14T06:33:23.079Z,52.55
2023-05-14T06:35:48.677Z,52.77
2023-05-14T06:38:23.610Z,52.96
2023-05-14T06:40:44.258Z,53.18
2023-05-14T06:43:05.018Z,53.40
2023-05-14T06:45:22.235Z,53.63
2023-05-14T06:47:56.277Z,53.67
2023-05-14T06:50:30.166Z,53.78
2023-05-14T06:53:04.387Z,53.89
2023-05-14T06:55:30.674Z,54.07
2023-05-14T06:57:55.709Z,54.25
2023-05-14T07:00:31.067Z,54.51
2023-05-14T07:03:04.784Z,54.73
2023-05-14T07:05:31.753Z,54.91
2023-05-14T07:07:58.767Z,55.18
2023-05-14T07:10:23.694Z,55.28
2023-05-14T07:12:57.159Z,55.58
2023-05-14T07:15:32.317Z,55.86
2023-05-14T07:17:59.912Z,55.86
2023-05-14T07:20:27.838Z,56.14
2023-05-14T07:23:01.779Z,56.39
2023-05-14T07:25:36.459Z,56.49
2023-05-14T07:28:00.349Z,56.65
2023-05-14T07:30:21.282Z,56.80
2023-05-14T07:32:55.780Z,56.88
2023-05-14T07:35:29.957Z,57.16
2023-05-14T07:37:57.620Z,57.18
2023-05-14T07:40:28.025Z,57.20
2023-05-14T07:42:52.264Z,57.22
2023-05-14T07:45:18.219Z,57.31
2023-05-14T07:50:20.725Z,57.46
2023-05-14T07:52:40.889Z,57.45
2023-05-14T07:55:18.078Z,57.40
2023-05-14T07:57:51.769Z,57.55
2023-05-14T08:00:23.261Z,57.65
2023-05-14T08:02:45.580Z,57.62
2023-05-14T08:05:17.095Z,57.71
2023-05-14T08:07:44.507Z,57.77
2023-05-14T08:10:18.596Z,57.87
2023-05-14T08:12:46.780Z,57.97
2023-05-14T08:15:17.645Z,57.95
2023-05-14T08:17:38.588Z,57.95
2023-05-14T08:20:10.217Z,57.95
2023-05-14T08:22:31.841Z,58.04
2023-05-14T08:25:07.082Z,58.13
2023-05-14T08:27:33.012Z,58.00
2023-05-14T08:30:07.886Z,58.09
2023-05-14T08:32:43.638Z,58.06
2023-05-14T08:35:17.302Z,58.08
2023-05-14T08:37:55.009Z,58.01
2023-05-14T08:40:28.514Z,57.91
2023-05-14T08:42:59.660Z,57.95
2023-05-14T08:45:37.461Z,57.79
2023-05-14T08:48:08.112Z,57.67
2023-05-14T08:50:34.610Z,57.63
2023-05-14T08:53:09.351Z,57.64
2023-05-14T08:55:43.593Z,57.52
2023-05-14T08:58:17.400Z,57.42
2023-05-14T09:00:43.326Z,57.41
2023-05-14T09:03:03.142Z,57.63
2023-05-14T09:05:36.930Z,57.75
2023-05-14T09:08:11.456Z,57.74
2023-05-14T09:10:41.450Z,57.68
2023-05-14T09:13:07.190Z,57.76
2023-05-14T09:15:34.961Z,57.93
2023-05-14T09:18:08.320Z,58.09
2023-05-14T09:20:31.278Z,58.21
2023-05-14T09:23:01.098Z,58.28
2023-05-14T09:25:37.950Z,58.48
2023-05-14T09:28:15.260Z,58.72
2023-05-14T09:30:50.280Z,58.94
2023-05-14T09:33:15.528Z,59.09
2023-05-14T09:35:51.098Z,59.26
2023-05-14T09:38:23.999Z,59.42
2023-05-14T09:40:52.625Z,59.50
2023-05-14T09:43:19.520Z,59.59
2023-05-14T09:45:54.620Z,59.68
2023-05-14T09:48:28.425Z,59.84
2023-05-14T09:50:53.984Z,59.97
2023-05-14T09:53:21.839Z,59.97
2023-05-14T09:55:55.499Z,60.13
2023-05-14T09:58:28.091Z,60.24
2023-05-14T10:01:04.717Z,60.36
2023-05-14T10:03:35.964Z,60.38
2023-05-14T10:06:12.178Z,60.58
2023-05-14T10:08:42.833Z,60.64
2023-05-14T10:11:14.117Z,60.58
2023-05-14T10:13:50.240Z,60.72
2023-05-14T10:16:17.105Z,60.75
2023-05-14T10:18:49.699Z,60.87
2023-05-14T10:21:28.958Z,60.93
2023-05-14T10:24:00.007Z,61.03
2023-05-14T10:26:35.660Z,61.15
2023-05-14T10:29:13.167Z,61.15
2023-05-14T10:31:57.727Z,61.38
2023-05-14T10:34:42.118Z,61.50
2023-05-14T10:37:10.212Z,61.56
2023-05-14T10:39:49.907Z,61.65
2023-05-14T10:42:30.191Z,61.86
2023-05-14T10:45:09.794Z,62.14
2023-05-14T10:47:30.070Z,61.72
2023-05-14T10:49:59.493Z,60.32
2023-05-14T10:52:22.627Z,58.87
2023-05-14T10:55:02.915Z,57.75
2023-05-14T10:57:32.893Z,55.65
2023-05-14T11:00:09.087Z,52.96
2023-05-14T11:02:38.563Z,49.94
2023-05-14T11:05:15.307Z,47.51
2023-05-14T11:07:50.293Z,47.17
2023-05-14T11:10:24.890Z,45.81
2023-05-14T11:13:00.086Z,45.79
2023-05-14T11:15:34.599Z,43.16
2023-05-14T11:18:00.932Z,43.06
2023-05-14T11:20:27.732Z,42.64
2023-05-14T11:23:02.309Z,41.38
2023-05-14T11:25:34.747Z,41.24
2023-05-14T11:28:08.784Z,41.05
2023-05-14T11:30:38.371Z,40.47
2023-05-14T11:33:06.699Z,38.98
2023-05-14T11:35:44.031Z,38.86
2023-05-14T11:38:23.071Z,39.10
2023-05-14T11:41:01.883Z,38.29
2023-05-14T11:43:30.955Z,38.11
2023-05-14T11:46:06.266Z,37.65
2023-05-14T11:48:35.330Z,37.23
2023-05-14T11:50:54.721Z,36.30
2023-05-14T11:53:23.081Z,36.18
2023-05-14T11:55:50.014Z,35.94
2023-05-14T11:58:18.290Z,35.42
2023-05-14T12:00:47.739Z,35.85
2023-05-14T12:03:13.539Z,36.31
2023-05-14T12:05:44.344Z,35.91
2023-05-14T12:08:33.317Z,35.70
2023-05-14T12:11:01.719Z,35.75
2023-05-14T12:13:32.434Z,34.77
2023-05-14T12:16:06.550Z,34.56
2023-05-14T12:18:32.125Z,34.66
2023-05-14T12:21:09.491Z,34.73
2023-05-14T12:23:36.403Z,34.03
2023-05-14T12:26:08.391Z,34.65
2023-05-14T12:28:45.906Z,34.33
2023-05-14T12:33:57.467Z,34.59
2023-05-14T12:36:22.860Z,34.58
2023-05-14T12:38:50.235Z,34.62
2023-05-14T12:41:24.846Z,34.34
2023-05-14T12:43:51.850Z,34.83
2023-05-14T12:46:25.841Z,34.92
2023-05-14T12:48:53.420Z,35.23
2023-05-14T12:51:27.940Z,34.98
2023-05-14T12:53:50.524Z,35.10
2023-05-14T12:56:29.079Z,35.52
2023-05-14T12:58:49.337Z,34.99
2023-05-14T13:01:23.137Z,35.14
2023-05-14T13:03:57.007Z,34.76
2023-05-14T13:06:30.380Z,34.96
2023-05-14T13:09:05.277Z,34.88
2023-05-14T13:11:38.364Z,35.15
2023-05-14T13:14:13.098Z,35.05
2023-05-14T13:16:37.457Z,35.04
2023-05-14T13:19:00.184Z,35.21
2023-05-14T13:21:24.355Z,34.74
2023-05-14T13:23:58.531Z,34.86
2023-05-14T13:26:18.093Z,35.00
2023-05-14T13:28:52.004Z,34.93
2023-05-14T13:31:27.289Z,35.13
2023-05-14T13:34:01.315Z,35.30
2023-05-14T13:36:35.296Z,35.19
2023-05-14T13:39:09.797Z,35.38
2023-05-14T13:41:43.581Z,35.64
2023-05-14T13:44:11.678Z,35.81
2023-05-14T13:46:38.388Z,35.93
2023-05-14T13:49:13.381Z,36.02
2023-05-14T13:51:47.207Z,36.21
2023-05-14T13:54:21.204Z,36.22
2023-05-14T13:56:55.647Z,36.28
2023-05-14T13:59:18.396Z,36.84
2023-05-14T14:01:53.812Z,36.72
2023-05-14T14:04:26.829Z,37.08
2023-05-14T14:07:00.931Z,37.16
2023-05-14T14:09:24.284Z,37.25
2023-05-14T14:11:51.504Z,37.27
2023-05-14T14:14:12.830Z,37.48
2023-05-14T14:16:32.341Z,37.73
2023-05-14T14:19:00.377Z,37.74
2023-05-14T14:21:26.399Z,37.79
2023-05-14T14:24:00.783Z,37.77
2023-05-14T14:26:30.389Z,37.60
2023-05-14T14:29:00.546Z,37.93
2023-05-14T14:31:35.719Z,37.67
2023-05-14T14:34:09.999Z,37.52
2023-05-14T14:36:43.731Z,37.38
2023-05-14T14:39:03.029Z,37.44
2023-05-14T14:41:35.718Z,37.23
2023-05-14T14:44:09.551Z,37.18
2023-05-14T14:46:43.999Z,36.82
2023-05-14T14:49:17.932Z,36.57
2023-05-14T14:51:51.048Z,36.15
2023-05-14T14:54:08.561Z,35.62
2023-05-14T14:56:42.547Z,35.73
2023-05-14T14:59:18.736Z,35.95
2023-05-14T15:01:52.072Z,34.87
2023-05-14T15:04:22.789Z,34.90
2023-05-14T15:06:55.953Z,34.70
2023-05-14T15:09:23.163Z,34.59
2023-05-14T15:11:55.333Z,34.41
2023-05-14T15:14:31.866Z,34.05
2023-05-14T15:17:06.070Z,34.35
2023-05-14T15:19:35.744Z,34.40
2023-05-14T15:22:08.464Z,33.71
2023-05-14T15:24:33.115Z,33.72
2023-05-14T15:26:56.457Z,33.93
2023-05-14T15:29:21.409Z,33.06
2023-05-14T15:31:48.694Z,32.58
2023-05-14T15:34:23.431Z,32.30
2023-05-14T15:36:58.117Z,32.58
2023-05-14T15:39:32.532Z,32.46
2023-05-14T15:42:03.437Z,32.20
2023-05-14T15:44:38.964Z,31.92
2023-05-14T15:47:08.926Z,31.85
2023-05-14T15:49:43.751Z,31.87
2023-05-14T15:52:11.414Z,31.96
2023-05-14T15:54:44.819Z,31.74
2023-05-14T15:57:20.096Z,31.78
2023-05-14T16:00:05.416Z,31.95
2023-05-14T16:02:18.990Z,31.07
2023-05-14T16:04:53.489Z,32.02
2023-05-14T16:07:28.380Z,32.33
2023-05-14T16:10:02.091Z,32.60
2023-05-14T16:12:34.592Z,32.13
2023-05-14T16:15:08.770Z,32.16
2023-05-14T16:17:35.027Z,32.24
2023-05-14T16:19:58.651Z,31.59
2023-05-14T16:22:23.348Z,31.00
2023-05-14T16:24:37.431Z,31.77
2023-05-14T16:27:15.057Z,32.12
2023-05-14T16:29:32.435Z,32.18
2023-05-14T16:31:50.408Z,32.21
2023-05-14T16:34:07.884Z,32.32
2023-05-14T16:36:33.937Z,32.66
2023-05-14T16:39:07.352Z,32.49
2023-05-14T16:41:53.035Z,32.53
2023-05-14T16:44:14.785Z,31.93
2023-05-14T16:46:39.131Z,31.77
2023-05-14T16:49:18.042Z,30.83
2023-05-14T16:51:55.322Z,31.00
2023-05-14T16:54:30.067Z,30.62
2023-05-14T16:57:17.477Z,30.24
2023-05-14T17:00:11.619Z,30.32
2023-05-14T17:02:30.682Z,29.91
2023-05-14T17:05:00.225Z,29.44
2023-05-14T17:07:32.487Z,30.06
2023-05-14T17:09:52.197Z,29.77
2023-05-14T17:12:42.586Z,29.34
2023-05-14T17:15:49.263Z,29.64
2023-05-14T17:18:29.807Z,28.86
2023-05-14T17:20:59.337Z,29.17
2023-05-14T17:23:33.535Z,29.22
2023-05-14T17:26:06.679Z,29.56
2023-05-14T17:28:29.278Z,29.34
2023-05-14T17:30:51.855Z,29.74
2023-05-14T17:33:42.325Z,28.87
2023-05-14T17:36:09.180Z,28.30
2023-05-14T17:38:56.418Z,27.95
2023-05-14T17:41:16.211Z,28.63
2023-05-14T17:43:39.297Z,28.51
2023-05-14T17:46:23.151Z,28.26
2023-05-14T17:49:08.915Z,28.66
2023-05-14T17:51:36.690Z,28.15
2023-05-14T17:54:11.007Z,28.37
2023-05-14T17:56:37.696Z,27.58
2023-05-14T17:59:00.166Z,27.38
2023-05-14T18:01:34.120Z,27.52
2023-05-14T18:03:57.193Z,27.23
2023-05-14T18:06:35.268Z,26.68
2023-05-14T18:09:09.557Z,27.15
2023-05-14T18:11:34.917Z,27.00
2023-05-14T18:14:10.559Z,26.22
2023-05-14T18:16:38.094Z,26.56
2023-05-14T18:19:12.377Z,26.22
2023-05-14T18:21:47.824Z,26.21
2023-05-14T18:24:13.967Z,26.30
2023-05-14T18:26:48.060Z,25.98
2023-05-14T18:29:21.665Z,26.04
2023-05-14T18:31:47.752Z,26.03
2023-05-14T18:34:10.199Z,25.75
2023-05-14T18:36:36.464Z,25.68
2023-05-14T18:39:09.265Z,25.34
2023-05-14T18:41:33.427Z,26.07
2023-05-14T18:43:59.639Z,26.03
2023-05-14T18:46:26.282Z,25.51
2023-05-14T18:48:54.257Z,26.01
2023-05-14T18:51:27.804Z,25.83
2023-05-14T18:53:55.092Z,25.24
2023-05-14T18:56:20.341Z,24.86
2023-05-14T18:58:53.490Z,25.32
2023-05-14T19:01:27.544Z,25.21
2023-05-14T19:04:03.066Z,25.09
2023-05-14T19:06:41.292Z,25.52
2023-05-14T19:09:07.758Z,25.80
2023-05-14T19:11:40.807Z,24.69
2023-05-14T19:14:15.742Z,24.92
2023-05-14T19:16:49.891Z,25.03
2023-05-14T19:19:17.303Z,25.40
2023-05-14T19:21:43.365Z,25.87
2023-05-14T19:24:17.104Z,25.08
2023-05-14T19:26:41.765Z,25.39
2023-05-14T19:29:09.216Z,24.50
2023-05-14T19:31:35.157Z,25.22
2023-05-14T19:34:02.460Z,24.99
2023-05-14T19:36:28.393Z,24.52
2023-05-14T19:39:00.952Z,24.11
2023-05-14T19:41:19.891Z,24.09
2023-05-14T19:43:44.416Z,23.96
2023-05-14T19:46:12.925Z,24.56
2023-05-14T19:48:50.311Z,23.86
2023-05-14T19:51:24.719Z,23.92
2023-05-14T19:53:59.583Z,24.41
2023-05-14T19:56:34.098Z,24.75
2023-05-14T19:59:08.049Z,24.25
2023-05-14T20:01:41.889Z,24.31
2023-05-14T20:04:17.283Z,24.23
2023-05-14T20:06:39.342Z,24.24
2023-05-14T20:09:00.120Z,24.04
2023-05-14T20:11:33.759Z,24.11
2023-05-14T20:14:07.733Z,24.33
2023-05-14T20:16:42.803Z,24.44
2023-05-14T20:19:17.391Z,24.26
2023-05-14T20:21:50.428Z,23.47
2023-05-14T20:24:24.337Z,22.47
2023-05-14T20:26:57.921Z,22.99
2023-05-14T20:29:31.807Z,23.29
2023-05-14T20:32:03.778Z,23.22
2023-05-14T20:34:27.793Z,22.87
2023-05-14T20:37:02.485Z,22.76
2023-05-14T20:39:37.214Z,22.93
2023-05-14T20:42:11.517Z,22.55
2023-05-14T20:44:49.506Z,22.70
2023-05-14T20:47:20.179Z,22.90
2023-05-14T20:49:54.249Z,22.93
2023-05-14T20:52:28.724Z,21.85
2023-05-14T20:55:03.056Z,22.12
2023-05-14T20:57:37.077Z,22.61
2023-05-14T21:00:13.958Z,23.37
2023-05-14T21:02:48.223Z,23.03
2023-05-14T21:05:17.523Z,22.35
2023-05-14T21:07:45.728Z,22.34
2023-05-14T21:10:14.132Z,22.18
2023-05-14T21:12:48.277Z,21.89
2023-05-14T21:15:23.086Z,21.97
2023-05-14T21:17:49.738Z,22.28
2023-05-14T21:20:25.597Z,22.46
2023-05-14T21:22:59.486Z,20.62
2023-05-14T21:25:34.238Z,20.02
2023-05-14T21:28:07.304Z,21.14
2023-05-14T21:30:32.916Z,21.17
2023-05-14T21:33:01.255Z,20.12
2023-05-14T21:35:23.832Z,20.83
2023-05-14T21:37:54.417Z,20.38
2023-05-14T21:40:33.988Z,19.62
2023-05-14T21:43:06.445Z,19.91
2023-05-14T21:48:20.902Z,20.52
2023-05-14T21:50:55.125Z,20.43
2023-05-14T21:53:22.274Z,20.11
2023-05-14T21:55:57.972Z,20.07
2023-05-14T21:58:32.785Z,19.98
2023-05-14T22:01:06.911Z,20.09
2023-05-14T22:03:30.294Z,20.36
2023-05-14T22:05:54.746Z,20.58
2023-05-14T22:08:28.775Z,20.50
2023-05-14T22:11:04.205Z,20.43
2023-05-14T22:13:36.492Z,19.82
2023-05-14T22:16:05.317Z,20.17
2023-05-14T22:18:36.818Z,20.45
2023-05-14T22:21:02.162Z,19.96
2023-05-14T22:23:36.310Z,19.95
2023-05-14T22:26:14.787Z,20.93
2023-05-14T22:28:43.982Z,20.46
2023-05-14T22:31:17.715Z,20.52
2023-05-14T22:33:44.067Z,20.31
2023-05-14T22:36:13.771Z,20.08
2023-05-14T22:38:48.156Z,19.89
2023-05-14T22:41:10.525Z,20.21
2023-05-14T22:43:38.061Z,20.08
2023-05-14T22:46:01.808Z,20.54
2023-05-14T22:48:35.328Z,19.60
2023-05-14T22:51:10.535Z,19.56
2023-05-14T22:53:44.556Z,20.26
2023-05-14T22:56:29.302Z,20.23
2023-05-14T22:58:54.944Z,20.23
2023-05-14T23:01:18.654Z,19.38
2023-05-14T23:03:48.923Z,19.01
2023-05-14T23:06:14.861Z,19.35
2023-05-14T23:08:49.810Z,18.94
2023-05-14T23:11:12.874Z,19.63
2023-05-14T23:13:46.975Z,20.54
2023-05-14T23:16:13.903Z,20.24
2023-05-14T23:18:44.952Z,19.63
2023-05-14T23:21:18.269Z,19.66
2023-05-14T23:23:52.829Z,19.58
2023-05-14T23:26:25.820Z,19.24
2023-05-14T23:28:54.266Z,18.87
2023-05-14T23:31:17.390Z,19.22
2023-05-14T23:33:45.661Z,18.70
2023-05-14T23:36:14.325Z,18.82
2023-05-14T23:38:40.369Z,18.86
2023-05-14T23:41:15.037Z,18.88
2023-05-14T23:43:49.997Z,19.06
2023-05-14T23:46:14.397Z,19.34
2023-05-14T23:48:48.263Z,18.90
2023-05-14T23:51:23.070Z,18.95
2023-05-14T23:53:59.388Z,18.32
2023-05-14T23:56:33.758Z,19.02
2023-05-14T23:59:09.046Z,18.55
